createdAt,value
2023-04-23T00:01:28.064Z,44.17
2023-04-23T00:03:58.666Z,42.97
2023-04-23T00:06:27.720Z,44.43
2023-04-23T00:09:01.057Z,42.90
2023-04-23T00:11:29.402Z,45.53
2023-04-23T00:13:57.982Z,44.10
2023-04-23T00:16:26.643Z,46.67
2023-04-23T00:18:54.612Z,46.30
2023-04-23T00:21:22.586Z,42.67
2023-04-23T00:23:50.500Z,43.13
2023-04-23T00:26:19.756Z,42.80
2023-04-23T00:28:47.748Z,45.73
2023-04-23T00:31:15.744Z,46.63
2023-04-23T00:33:43.745Z,46.10
2023-04-23T00:36:11.592Z,43.20
2023-04-23T00:38:39.494Z,45.03
2023-04-23T00:41:07.883Z,47.93
2023-04-23T00:43:37.510Z,45.73
2023-04-23T00:46:05.983Z,46.13
2023-04-23T00:48:35.436Z,46.70
2023-04-23T00:51:06.207Z,46.53
2023-04-23T00:53:34.965Z,46.70
2023-04-23T00:56:05.138Z,44.97
2023-04-23T00:58:33.835Z,45.93
2023-04-23T01:01:04.705Z,47.20
2023-04-23T01:03:33.698Z,48.40
2023-04-23T01:06:01.958Z,47.17
2023-04-23T01:08:31.635Z,47.57
2023-04-23T01:11:00.593Z,46.77
2023-04-23T01:13:29.795Z,47.20
2023-04-23T01:15:58.338Z,47.37
2023-04-23T01:18:27.724Z,45.63
2023-04-23T01:20:55.800Z,46.10
2023-04-23T01:23:27.033Z,47.57
2023-04-23T01:25:55.072Z,42.47
2023-04-23T01:28:23.116Z,43.23
2023-04-23T01:30:52.151Z,44.63
2023-04-23T01:33:20.391Z,44.00
2023-04-23T01:35:49.405Z,44.43
2023-04-23T01:38:18.187Z,43.57
2023-04-23T01:40:47.964Z,43.10
2023-04-23T01:43:16.916Z,43.77
2023-04-23T01:45:45.060Z,43.20
2023-04-23T01:48:13.209Z,42.13
2023-04-23T01:50:41.615Z,42.80
2023-04-23T01:53:09.581Z,42.53
2023-04-23T01:55:39.795Z,44.13
2023-04-23T01:58:09.423Z,47.83
2023-04-23T02:00:37.926Z,44.20
2023-04-23T02:03:06.220Z,44.00
2023-04-23T02:05:36.459Z,41.77
2023-04-23T02:08:04.814Z,42.57
2023-04-23T02:10:32.855Z,45.17
2023-04-23T02:13:01.936Z,42.03
2023-04-23T02:15:32.418Z,44.57
2023-04-23T02:18:00.422Z,43.27
2023-04-23T02:20:28.498Z,44.40
2023-04-23T02:22:56.719Z,43.80
2023-04-23T02:25:24.690Z,40.43
2023-04-23T02:27:52.751Z,43.77
2023-04-23T02:30:21.373Z,41.83
2023-04-23T02:32:50.806Z,43.40
2023-04-23T02:35:18.772Z,45.53
2023-04-23T02:37:46.683Z,42.83
2023-04-23T02:40:14.644Z,42.30
2023-04-23T02:42:43.997Z,45.40
2023-04-23T02:45:12.615Z,42.27
2023-04-23T02:47:40.608Z,39.77
2023-04-23T02:50:10.723Z,40.23
2023-04-23T02:52:38.697Z,40.47
2023-04-23T02:55:08.480Z,40.50
2023-04-23T02:57:36.597Z,41.83
2023-04-23T03:00:06.987Z,39.50
2023-04-23T03:02:35.060Z,40.33
2023-04-23T03:05:03.227Z,39.30
2023-04-23T03:07:32.585Z,40.57
2023-04-23T03:10:00.498Z,38.87
2023-04-23T03:12:28.391Z,41.40
2023-04-23T03:14:56.311Z,39.70
2023-04-23T03:17:24.294Z,37.83
2023-04-23T03:19:52.398Z,38.57
2023-04-23T03:22:20.426Z,38.07
2023-04-23T03:24:49.708Z,39.23
2023-04-23T03:27:17.747Z,39.83
2023-04-23T03:29:46.300Z,37.90
2023-04-23T03:32:14.273Z,39.17
2023-04-23T03:34:42.356Z,37.07
2023-04-23T03:37:10.800Z,36.77
2023-04-23T03:39:38.736Z,37.33
2023-04-23T03:42:08.079Z,36.10
2023-04-23T03:44:35.933Z,35.43
2023-04-23T03:47:04.187Z,35.17
2023-04-23T03:49:32.164Z,37.27
2023-04-23T03:52:00.134Z,35.10
2023-04-23T03:54:28.275Z,38.27
2023-04-23T03:56:57.640Z,38.53
2023-04-23T03:59:26.903Z,36.10
2023-04-23T04:01:54.801Z,39.30
2023-04-23T04:04:23.144Z,37.20
2023-04-23T04:06:51.288Z,36.73
2023-04-23T04:09:19.294Z,36.77
2023-04-23T04:11:47.325Z,37.47
2023-04-23T04:14:15.473Z,38.70
2023-04-23T04:16:44.717Z,37.87
2023-04-23T04:19:12.750Z,34.40
2023-04-23T04:21:40.766Z,37.73
2023-04-23T04:24:08.998Z,35.27
2023-04-23T04:26:37.376Z,35.50
2023-04-23T04:29:05.551Z,35.60
2023-04-23T04:31:33.751Z,30.33
2023-04-23T04:34:03.084Z,31.23
2023-04-23T04:36:31.873Z,35.33
2023-04-23T04:38:59.845Z,35.73
2023-04-23T04:41:27.912Z,33.97
2023-04-23T04:43:56.086Z,32.10
2023-04-23T04:46:24.019Z,32.37
2023-04-23T04:48:51.962Z,30.97
2023-04-23T04:51:21.467Z,34.30
2023-04-23T04:53:49.442Z,32.03
2023-04-23T04:56:17.394Z,29.93
2023-04-23T04:58:45.377Z,28.40
2023-04-23T05:01:13.503Z,31.77
2023-04-23T05:03:41.744Z,29.50
2023-04-23T05:06:09.720Z,27.37
2023-04-23T05:08:39.064Z,30.10
2023-04-23T05:11:07.040Z,28.97
2023-04-23T05:13:34.950Z,28.13
2023-04-23T05:16:02.925Z,28.53
2023-04-23T05:18:30.811Z,29.93
2023-04-23T05:20:58.862Z,25.73
2023-04-23T05:23:26.784Z,29.70
2023-04-23T05:25:57.154Z,28.00
2023-04-23T05:28:25.110Z,24.10
2023-04-23T05:30:53.393Z,24.73
2023-04-23T05:33:21.326Z,27.80
2023-04-23T05:35:49.225Z,25.37
2023-04-23T05:38:17.123Z,24.23
2023-04-23T05:40:45.149Z,23.97
2023-04-23T05:43:14.939Z,25.20
2023-04-23T05:45:43.016Z,25.27
2023-04-23T05:48:10.909Z,23.63
2023-04-23T05:50:38.892Z,25.07
2023-04-23T05:53:06.860Z,27.33
2023-04-23T05:55:34.814Z,22.37
2023-04-23T05:58:02.795Z,22.07
2023-04-23T06:00:32.433Z,25.23
2023-04-23T06:03:00.369Z,23.20
2023-04-23T06:05:28.550Z,23.30
2023-04-23T06:07:56.506Z,23.00
2023-04-23T06:10:24.482Z,22.73
2023-04-23T06:12:54.349Z,20.83
2023-04-23T06:15:26.751Z,22.27
2023-04-23T06:17:56.168Z,23.00
2023-04-23T06:20:24.165Z,21.33
2023-04-23T06:22:52.192Z,20.00
2023-04-23T06:25:20.238Z,20.43
2023-04-23T06:27:48.360Z,20.47
2023-04-23T06:30:16.411Z,18.47
2023-04-23T06:32:44.581Z,18.97
2023-04-23T06:35:13.919Z,19.73
2023-04-23T06:37:41.907Z,18.70
2023-04-23T06:40:11.147Z,17.70
2023-04-23T06:42:39.188Z,20.90
2023-04-23T06:45:08.380Z,19.90
2023-04-23T06:47:36.266Z,20.40
2023-04-23T06:50:05.712Z,17.90
2023-04-23T06:52:35.381Z,17.13
2023-04-23T06:55:03.471Z,17.83
2023-04-23T06:57:31.507Z,16.77
2023-04-23T06:59:59.527Z,16.03
2023-04-23T07:02:27.569Z,16.03
2023-04-23T07:04:55.596Z,17.57
2023-04-23T07:07:23.474Z,19.70
2023-04-23T07:09:52.932Z,17.07
2023-04-23T07:12:20.978Z,17.50
2023-04-23T07:14:48.940Z,15.50
2023-04-23T07:17:16.938Z,15.97
2023-04-23T07:19:44.825Z,16.10
2023-04-23T07:22:12.739Z,16.83
2023-04-23T07:24:41.639Z,17.33
2023-04-23T07:27:11.210Z,16.80
2023-04-23T07:29:39.378Z,14.03
2023-04-23T07:32:07.551Z,16.00
2023-04-23T07:34:37.989Z,14.77
2023-04-23T07:37:06.273Z,14.17
2023-04-23T07:39:34.748Z,13.50
2023-04-23T07:42:03.094Z,15.50
2023-04-23T07:44:32.477Z,14.40
2023-04-23T07:47:00.494Z,11.63
2023-04-23T07:49:28.508Z,11.23
2023-04-23T07:51:56.489Z,14.87
2023-04-23T07:54:25.651Z,13.10
2023-04-23T07:56:53.786Z,11.97
2023-04-23T07:59:21.814Z,11.20
2023-04-23T08:01:51.090Z,12.80
2023-04-23T08:04:19.232Z,11.43
2023-04-23T08:06:47.527Z,10.57
2023-04-23T08:09:15.528Z,9.67
2023-04-23T08:11:43.473Z,10.90
2023-04-23T08:14:11.453Z,9.87
2023-04-23T08:16:39.453Z,10.13
2023-04-23T08:19:08.784Z,10.50
2023-04-23T08:21:36.885Z,9.87
2023-04-23T08:24:05.478Z,7.90
2023-04-23T08:26:33.391Z,9.33
2023-04-23T08:29:01.696Z,9.17
2023-04-23T08:31:29.815Z,9.87
2023-04-23T08:33:58.166Z,8.30
2023-04-23T08:36:28.463Z,8.43
2023-04-23T08:38:56.426Z,7.70
2023-04-23T08:41:27.070Z,7.33
2023-04-23T08:44:05.841Z,6.57
2023-04-23T08:46:36.853Z,8.80
2023-04-23T08:49:06.106Z,7.60
2023-04-23T08:51:43.532Z,9.57
2023-04-23T08:54:19.550Z,7.00
2023-04-23T08:56:48.160Z,6.77
2023-04-23T08:59:18.256Z,6.00
2023-04-23T09:01:46.236Z,9.57
2023-04-23T09:04:16.973Z,5.93
2023-04-23T09:06:46.226Z,7.93
2023-04-23T09:09:16.923Z,9.70
2023-04-23T09:11:45.523Z,6.43
2023-04-23T09:14:14.328Z,8.83
2023-04-23T09:16:42.948Z,6.80
2023-04-23T09:19:11.871Z,7.23
2023-04-23T09:21:40.976Z,7.83
2023-04-23T09:24:12.828Z,6.37
2023-04-23T09:26:46.773Z,8.33
2023-04-23T09:29:18.966Z,5.40
2023-04-23T09:31:49.361Z,6.43
2023-04-23T09:34:18.505Z,4.93
2023-04-23T09:36:47.168Z,3.97
2023-04-23T09:39:18.119Z,6.53
2023-04-23T09:41:46.862Z,6.87
2023-04-23T09:44:19.321Z,4.03
2023-04-23T09:46:47.258Z,3.23
2023-04-23T09:49:16.419Z,7.13
2023-04-23T09:51:46.144Z,5.20
2023-04-23T09:54:18.570Z,6.50
2023-04-23T09:56:50.951Z,5.33
2023-04-23T09:59:32.456Z,6.13
2023-04-23T10:02:09.663Z,10.37
2023-04-23T10:04:39.031Z,6.17
2023-04-23T10:09:45.889Z,6.57
2023-04-23T10:14:49.301Z,5.93
2023-04-23T10:17:17.612Z,6.67
2023-04-23T10:19:45.993Z,8.60
2023-04-23T10:22:19.886Z,8.53
2023-04-23T10:24:57.170Z,5.63
2023-04-23T10:27:40.648Z,4.27
2023-04-23T10:30:16.507Z,6.13
2023-04-23T10:32:46.109Z,6.43
2023-04-23T10:35:14.109Z,7.33
2023-04-23T10:37:42.753Z,5.27
2023-04-23T10:40:15.258Z,4.20
2023-04-23T10:42:45.456Z,5.27
2023-04-23T10:47:48.908Z,7.13
2023-04-23T10:50:22.456Z,7.23
2023-04-23T10:52:53.542Z,6.20
2023-04-23T10:55:24.249Z,6.10
2023-04-23T10:58:03.386Z,6.87
2023-04-23T11:00:44.124Z,8.97
2023-04-23T11:03:32.329Z,4.00
2023-04-23T11:06:03.247Z,6.00
2023-04-23T11:08:33.047Z,4.73
2023-04-23T11:11:07.358Z,5.97
2023-04-23T11:13:55.991Z,6.27
2023-04-23T11:16:24.858Z,5.83
2023-04-23T11:19:03.000Z,6.10
2023-04-23T11:21:58.380Z,3.73
2023-04-23T11:24:27.866Z,4.00
2023-04-23T11:26:57.222Z,4.50
2023-04-23T11:29:26.591Z,3.97
2023-04-23T11:32:02.590Z,9.17
2023-04-23T11:34:31.635Z,4.13
2023-04-23T11:37:01.408Z,2.57
2023-04-23T11:39:29.338Z,4.77
2023-04-23T11:41:59.333Z,3.73
2023-04-23T11:44:28.117Z,3.80
2023-04-23T11:46:58.355Z,4.57
2023-04-23T11:49:26.593Z,4.67
2023-04-23T11:51:54.547Z,4.67
2023-04-23T11:54:30.651Z,5.97
2023-04-23T11:57:00.313Z,4.27
2023-04-23T11:59:29.050Z,3.90
2023-04-23T12:01:58.320Z,4.87
2023-04-23T12:04:27.722Z,5.57
2023-04-23T12:06:57.146Z,5.17
2023-04-23T12:09:26.400Z,5.67
2023-04-23T12:11:54.786Z,5.00
2023-04-23T12:14:29.088Z,5.07
2023-04-23T12:16:58.036Z,5.63
2023-04-23T12:19:29.476Z,2.43
2023-04-23T12:21:59.370Z,3.63
2023-04-23T12:24:29.303Z,3.10
2023-04-23T12:27:00.791Z,4.20
2023-04-23T12:29:31.881Z,2.57
2023-04-23T12:32:00.768Z,4.27
2023-04-23T12:34:28.828Z,4.53
2023-04-23T12:36:57.871Z,3.87
2023-04-23T12:39:29.329Z,4.40
2023-04-23T12:41:59.962Z,3.53
2023-04-23T12:44:28.066Z,2.07
2023-04-23T12:46:58.920Z,3.07
2023-04-23T12:49:28.050Z,5.33
2023-04-23T12:52:01.000Z,4.00
2023-04-23T12:54:31.267Z,3.37
2023-04-23T12:56:59.780Z,3.73
2023-04-23T12:59:27.814Z,3.43
2023-04-23T13:01:57.649Z,5.33
2023-04-23T13:04:25.601Z,3.30
2023-04-23T13:06:54.592Z,3.43
2023-04-23T13:09:26.287Z,4.03
2023-04-23T13:11:55.107Z,6.60
2023-04-23T13:14:23.661Z,4.00
2023-04-23T13:16:52.697Z,3.73
2023-04-23T13:19:22.023Z,2.97
2023-04-23T13:21:49.982Z,5.67
2023-04-23T13:24:17.895Z,5.27
2023-04-23T13:26:45.827Z,4.77
2023-04-23T13:29:13.801Z,5.13
2023-04-23T13:31:41.664Z,4.13
2023-04-23T13:34:09.866Z,4.57
2023-04-23T13:36:41.273Z,2.83
2023-04-23T13:39:09.943Z,2.57
2023-04-23T13:41:37.853Z,3.50
2023-04-23T13:44:05.844Z,4.80
2023-04-23T13:46:33.984Z,2.40
2023-04-23T13:49:02.107Z,3.37
2023-04-23T13:51:35.235Z,1.83
2023-04-23T13:54:05.856Z,3.07
2023-04-23T13:56:33.865Z,2.97
2023-04-23T14:01:34.915Z,3.80
2023-04-23T14:04:04.214Z,4.07
2023-04-23T14:06:32.574Z,1.87
2023-04-23T14:09:00.552Z,2.00
2023-04-23T14:11:29.921Z,2.33
2023-04-23T14:13:58.405Z,3.97
2023-04-23T14:16:26.454Z,4.37
2023-04-23T14:18:54.522Z,6.43
2023-04-23T14:21:23.591Z,4.27
2023-04-23T14:23:56.251Z,3.63
2023-04-23T14:26:47.331Z,4.17
2023-04-23T14:29:25.262Z,2.80
2023-04-23T14:31:53.309Z,3.90
2023-04-23T14:34:21.633Z,3.07
2023-04-23T14:36:49.834Z,6.00
2023-04-23T14:39:17.903Z,3.23
2023-04-23T14:41:47.145Z,3.37
2023-04-23T14:44:15.132Z,2.97
2023-04-23T14:46:43.048Z,3.27
2023-04-23T14:49:11.649Z,3.67
2023-04-23T14:51:39.675Z,5.30
2023-04-23T14:54:07.692Z,3.03
2023-04-23T14:56:35.688Z,6.53
2023-04-23T14:59:05.197Z,4.63
2023-04-23T15:01:33.317Z,5.13
2023-04-23T15:04:01.674Z,3.90
2023-04-23T15:06:29.802Z,2.50
2023-04-23T15:08:57.975Z,4.27
2023-04-23T15:11:25.969Z,5.20
2023-04-23T15:13:58.256Z,2.17
2023-04-23T15:16:47.528Z,4.83
2023-04-23T15:19:18.208Z,4.30
2023-04-23T15:21:46.502Z,4.13
2023-04-23T15:24:14.622Z,3.47
2023-04-23T15:26:42.607Z,3.30
2023-04-23T15:29:10.828Z,3.30
2023-04-23T15:31:40.660Z,3.13
2023-04-23T15:34:09.574Z,3.50
2023-04-23T15:36:38.430Z,3.50
2023-04-23T15:39:07.030Z,4.30
2023-04-23T15:41:39.478Z,3.60
2023-04-23T15:44:12.214Z,4.10
2023-04-23T15:46:41.786Z,3.53
2023-04-23T15:49:09.782Z,11.13
2023-04-23T15:51:37.858Z,23.63
2023-04-23T15:54:08.250Z,7.10
2023-04-23T15:56:37.041Z,5.93
2023-04-23T15:59:04.959Z,5.37
2023-04-23T16:01:33.143Z,4.97
2023-04-23T16:06:33.461Z,2.83
2023-04-23T16:09:02.305Z,2.90
2023-04-23T16:11:30.425Z,3.60
2023-04-23T16:13:58.442Z,5.43
2023-04-23T16:16:26.920Z,5.60
2023-04-23T16:18:56.367Z,4.27
2023-04-23T16:21:28.045Z,2.53
2023-04-23T16:23:55.957Z,4.43
2023-04-23T16:26:23.939Z,4.80
2023-04-23T16:29:05.457Z,3.73
2023-04-23T16:31:39.780Z,5.77
2023-04-23T16:34:07.816Z,6.53
2023-04-23T16:36:37.107Z,4.73
2023-04-23T16:39:05.322Z,2.53
2023-04-23T16:41:33.651Z,3.40
2023-04-23T16:44:01.671Z,7.37
2023-04-23T16:46:31.321Z,3.40
2023-04-23T16:48:59.746Z,2.63
2023-04-23T16:51:28.358Z,5.07
2023-04-23T16:53:57.812Z,2.37
2023-04-23T16:56:26.027Z,3.47
2023-04-23T16:58:54.001Z,3.50
2023-04-23T17:01:21.967Z,2.20
2023-04-23T17:03:50.135Z,2.53
2023-04-23T17:06:25.735Z,3.43
2023-04-23T17:08:53.832Z,2.10
2023-04-23T17:11:24.593Z,1.70
2023-04-23T17:13:52.727Z,2.67
2023-04-23T17:16:20.843Z,1.90
2023-04-23T17:18:48.918Z,2.50
2023-04-23T17:21:16.778Z,1.10
2023-04-23T17:23:44.707Z,1.97
2023-04-23T17:26:12.641Z,1.83
2023-04-23T17:28:42.098Z,1.43
2023-04-23T17:31:10.361Z,2.03
2023-04-23T17:33:38.703Z,1.87
2023-04-23T17:36:06.833Z,2.20
2023-04-23T17:38:34.889Z,1.93
2023-04-23T17:41:03.434Z,1.10
2023-04-23T17:43:34.888Z,3.07
2023-04-23T17:46:04.598Z,3.33
2023-04-23T17:48:32.746Z,1.40
2023-04-23T17:51:01.796Z,1.57
2023-04-23T17:53:30.094Z,1.97
2023-04-23T17:56:02.627Z,3.10
2023-04-23T17:58:30.850Z,3.13
2023-04-23T18:00:58.798Z,2.40
2023-04-23T18:03:30.069Z,3.03
2023-04-23T18:05:58.264Z,2.67
2023-04-23T18:08:26.333Z,2.50
2023-04-23T18:10:54.516Z,1.50
2023-04-23T18:13:22.469Z,2.63
2023-04-23T18:15:50.633Z,3.03
2023-04-23T18:18:19.200Z,1.30
2023-04-23T18:20:49.073Z,3.17
2023-04-23T18:23:17.975Z,3.77
2023-04-23T18:25:45.942Z,2.77
2023-04-23T18:28:14.165Z,2.10
2023-04-23T18:30:42.125Z,2.40
2023-04-23T18:33:25.791Z,1.80
2023-04-23T18:35:59.351Z,3.13
2023-04-23T18:38:32.194Z,1.73
2023-04-23T18:41:02.748Z,1.57
2023-04-23T18:43:31.776Z,3.23
2023-04-23T18:45:59.725Z,2.00
2023-04-23T18:48:42.109Z,1.90
2023-04-23T18:51:21.313Z,1.97
2023-04-23T18:53:49.612Z,2.53
2023-04-23T18:56:17.718Z,3.13
2023-04-23T18:58:45.656Z,2.63
2023-04-23T19:01:14.118Z,1.43
2023-04-23T19:03:42.187Z,3.33
2023-04-23T19:06:10.190Z,6.47
2023-04-23T19:08:39.530Z,1.40
2023-04-23T19:11:07.472Z,1.43
2023-04-23T19:13:35.473Z,3.10
2023-04-23T19:16:03.555Z,3.23
2023-04-23T19:18:32.629Z,2.23
2023-04-23T19:21:00.603Z,2.40
2023-04-23T19:23:28.636Z,1.80
2023-04-23T19:25:58.217Z,2.60
2023-04-23T19:28:26.182Z,2.07
2023-04-23T19:30:54.213Z,3.40
2023-04-23T19:33:22.239Z,2.00
2023-04-23T19:35:50.447Z,2.83
2023-04-23T19:38:18.554Z,2.43
2023-04-23T19:40:46.514Z,2.07
2023-04-23T19:43:15.961Z,2.10
2023-04-23T19:45:43.815Z,2.30
2023-04-23T19:48:11.752Z,4.17
2023-04-23T19:50:39.976Z,5.83
2023-04-23T19:53:07.919Z,2.60
2023-04-23T19:55:36.009Z,2.27
2023-04-23T19:58:06.349Z,2.67
2023-04-23T20:00:39.783Z,3.27
2023-04-23T20:03:09.111Z,4.00
2023-04-23T20:05:37.469Z,3.90
2023-04-23T20:08:11.391Z,2.83
2023-04-23T20:10:39.435Z,1.70
2023-04-23T20:13:07.619Z,2.60
2023-04-23T20:15:37.013Z,1.60
2023-04-23T20:18:05.308Z,3.43
2023-04-23T20:20:33.992Z,5.87
2023-04-23T20:23:01.943Z,3.07
2023-04-23T20:25:29.996Z,3.37
2023-04-23T20:27:58.033Z,4.40
2023-04-23T20:30:26.091Z,1.80
2023-04-23T20:32:55.325Z,1.63
2023-04-23T20:35:23.361Z,5.10
2023-04-23T20:37:53.183Z,2.10
2023-04-23T20:40:21.191Z,3.37
2023-04-23T20:42:51.606Z,2.43
2023-04-23T20:45:20.562Z,2.40
2023-04-23T20:47:50.101Z,3.87
2023-04-23T20:50:19.543Z,3.53
2023-04-23T20:52:47.513Z,3.43
2023-04-23T20:55:15.434Z,4.87
2023-04-23T20:57:43.422Z,3.20
2023-04-23T21:00:12.888Z,3.03
2023-04-23T21:02:41.186Z,3.37
2023-04-23T21:05:12.302Z,2.70
2023-04-23T21:07:41.586Z,2.37
2023-04-23T21:10:10.050Z,2.60
2023-04-23T21:12:38.097Z,4.97
2023-04-23T21:15:07.018Z,6.27
2023-04-23T21:17:35.040Z,4.47
2023-04-23T21:20:03.038Z,3.90
2023-04-23T21:22:31.583Z,3.90
2023-04-23T21:25:01.008Z,3.07
2023-04-23T21:27:30.888Z,3.67
2023-04-23T21:30:01.583Z,3.40
2023-04-23T21:32:29.602Z,3.27
2023-04-23T21:34:57.592Z,3.60
2023-04-23T21:37:25.519Z,3.50
2023-04-23T21:39:53.482Z,3.33
2023-04-23T21:42:22.823Z,4.20
2023-04-23T21:44:50.709Z,2.70
2023-04-23T21:47:18.595Z,2.73
2023-04-23T21:49:46.568Z,3.37
2023-04-23T21:52:14.556Z,3.43
2023-04-23T21:54:42.531Z,2.43
2023-04-23T21:57:10.501Z,7.43
2023-04-23T21:59:39.786Z,4.17
2023-04-23T22:02:07.848Z,2.93
2023-04-23T22:04:36.533Z,4.03
2023-04-23T22:07:05.624Z,3.20
2023-04-23T22:09:33.607Z,3.43
2023-04-23T22:12:02.884Z,4.93
2023-04-23T22:14:31.051Z,2.67
2023-04-23T22:17:01.945Z,3.57
2023-04-23T22:19:31.243Z,2.20
2023-04-23T22:21:59.332Z,2.97
2023-04-23T22:24:27.253Z,1.70
2023-04-23T22:26:55.208Z,2.37
2023-04-23T22:29:23.200Z,1.40
2023-04-23T22:31:51.193Z,4.77
2023-04-23T22:34:20.506Z,2.00
2023-04-23T22:36:48.443Z,2.17
2023-04-23T22:39:16.444Z,2.30
2023-04-23T22:41:44.274Z,1.10
2023-04-23T22:44:12.230Z,1.27
2023-04-23T22:46:40.386Z,2.73
2023-04-23T22:49:11.017Z,1.73
2023-04-23T22:51:40.659Z,1.37
2023-04-23T22:54:08.602Z,1.90
2023-04-23T22:56:37.591Z,2.53
2023-04-23T22:59:05.949Z,1.27
2023-04-23T23:01:34.042Z,1.17
2023-04-23T23:04:02.504Z,1.97
2023-04-23T23:06:30.507Z,2.53
2023-04-23T23:08:59.845Z,2.27
2023-04-23T23:11:28.771Z,1.60
2023-04-23T23:13:57.222Z,1.30
2023-04-23T23:16:25.526Z,2.10
2023-04-23T23:18:53.951Z,1.50
2023-04-23T23:21:21.921Z,2.13
2023-04-23T23:23:49.884Z,1.37
2023-04-23T23:26:19.980Z,1.30
2023-04-23T23:28:48.002Z,1.60
2023-04-23T23:31:16.146Z,1.73
2023-04-23T23:33:44.100Z,3.67
2023-04-23T23:36:12.097Z,1.40
2023-04-23T23:38:40.105Z,1.53
2023-04-23T23:41:08.151Z,2.10
2023-04-23T23:43:37.788Z,1.43
2023-04-23T23:46:05.789Z,1.50
2023-04-23T23:48:33.903Z,2.57
2023-04-23T23:51:01.818Z,1.77
2023-04-23T23:53:29.800Z,1.73
2023-04-23T23:55:58.069Z,2.13
2023-04-23T23:58:25.980Z,2.20
